Station: Clare  

  Atmospheric Gas Attenuation - ITU Rec 676-11   ----------------- dB/100km -----------------
Date Time Temp RH % AH g/m3 Dew Point Wind Direction Speed kph Gust kph Barometer mB Rainfall Since 9am 24GHz 47GHz 76GHz 122GHz 134GHz 241GHz
09/05 10:50 13.7 80 9.47 10.3 7 9 1030.8 0 21.4 28.0 44.2 116.0 111.8 385.2
09/05 10:40 13.6 79 9.3 10 11 11 1030.8 0 21.1 27.8 43.6 114.3 109.6 377.5
09/05 10:30 12.6 82 9.07 9.6 7 11 1030.9 0 20.6 27.7 43.2 113.2 107.8 371.2
09/05 10:20 12.8 84 9.41 10.2 7 9 1030.9 0 21.3 28.2 44.5 116.7 112.3 386.7
09/05 10:10 12.5 84 9.24 9.9 11 13 1030.8 0 21.0 28.0 43.9 115.2 110.3 379.9
09/05 10:00 12.6 86 9.52 10.3 7 11 1030.8 0 21.6 28.5 45.1 118.2 114.1 393.1
09/05 09:50 12.2 85 9.17 9.8 6 6 1030.8 0 20.9 28.0 43.8 114.9 109.8 377.9
09/05 09:40 11.8 85 8.95 9.4 7 9 1030.9 0 20.4 27.8 43.1 113.0 107.3 369.2
09/05 09:30 11.8 87 9.16 9.7 6 9 1031 0 20.9 28.1 44.0 115.4 110.2 379.5
09/05 09:20 11.5 87 8.99 9.4 7 9 1031 0 20.5 27.9 43.4 113.9 108.3 372.6
09/05 09:10 11.3 87 8.88 9.2 7 9 1030.9 0 20.3 27.8 43.1 112.9 107.0 368.1
09/05 09:00 11.3 87 8.88 9.2 4 11 1030.9 0 20.3 27.8 43.1 112.9 107.0 368.1
09/05 08:50 11.2 86 8.72 8.9 6 6 1030.8 0.2 20.0 27.6 42.4 111.2 104.9 360.7
09/05 08:40 11.2 87 8.82 9.1 9 11 1030.7 0.2 20.2 27.7 42.9 112.3 106.3 365.6
09/05 08:30 11.4 88 9.03 9.5 6 11 1030.5 0.2 20.6 28.0 43.6 114.4 108.9 374.9
09/05 08:20 11.2 89 9.02 9.5 0 0 1030.5 0.2 20.6 28.1 43.7 114.6 109.1 375.3
09/05 08:10 10.9 89 8.85 9.2 7 9 1030.4 0.2 20.2 27.9 43.1 113.1 107.1 368.4
09/05 08:00 10.9 90 8.95 9.3 7 11 1030.2 0.2 20.5 28.0 43.6 114.2 108.5 373.3
09/05 07:50 10.9 90 8.95 9.3 9 11 1030.3 0.2 20.5 28.0 43.6 114.2 108.5 373.3
09/05 07:40 10.9 90 8.95 9.3 6 6 1030.3 0.2 20.5 28.0 43.6 114.2 108.5 373.3
09/05 07:30 10.7 89 8.74 9 4 11 1030.2 0.2 20.0 27.7 42.8 112.1 105.8 363.9
09/05 07:20 10.7 89 8.74 9 4 6 1030.3 0.2 20.0 27.7 42.8 112.1 105.8 363.9
09/05 07:10 10.7 89 8.74 9 7 9 1030.2 0.2 20.0 27.7 42.8 112.1 105.8 363.9
09/05 07:00 10.7 89 8.74 9 4 9 1030 0.2 20.0 27.7 42.8 112.1 105.8 363.8
09/05 06:50 10.7 89 8.74 9 6 7 1030.1 0.2 20.0 27.7 42.8 112.1 105.8 363.8
09/05 06:40 10.8 89 8.8 9.1 0 0 1030 0.2 20.1 27.8 43.0 112.6 106.5 366.3
09/05 06:30 10.7 89 8.74 9 2 6 1029.9 0.2 20.0 27.7 42.8 112.1 105.8 363.8
09/05 06:20 10.7 89 8.74 9 0 0 1029.8 0.2 20.0 27.7 42.8 112.1 105.8 363.8
09/05 06:10 10.7 89 8.74 9 4 6 1029.7 0.2 20.0 27.7 42.8 112.0 105.8 363.7
09/05 06:00 10.7 89 8.74 9 6 7 1029.5 0.2 20.0 27.7 42.7 112.0 105.8 363.7
09/05 05:50 10.6 89 8.69 8.9 6 7 1029.5 0.2 19.9 27.6 42.6 111.6 105.2 361.7
09/05 05:40 10.6 89 8.69 8.9 0 0 1029.5 0.2 19.9 27.6 42.6 111.6 105.2 361.7
09/05 05:30 10.6 89 8.69 8.9 4 7 1029.3 0.2 19.9 27.6 42.6 111.6 105.2 361.6
09/05 05:20 10.7 89 8.74 9 4 6 1029.3 0.2 20.0 27.7 42.7 112.0 105.8 363.6
09/05 05:10 10.6 89 8.69 8.9 0 0 1029.3 0.2 19.9 27.6 42.6 111.6 105.2 361.6
09/05 05:00 10.6 89 8.69 8.9 2 7 1029.2 0.2 19.9 27.6 42.6 111.6 105.2 361.6
09/05 04:50 10.6 89 8.69 8.9 0 0 1029.3 0.2 19.9 27.6 42.6 111.6 105.2 361.6
09/05 04:40 10.6 89 8.69 8.9 6 7 1029.2 0.2 19.9 27.6 42.6 111.6 105.2 361.6
09/05 04:30 10.6 89 8.69 8.9 4 9 1029.1 0.2 19.9 27.6 42.6 111.6 105.2 361.6
09/05 04:20 10.6 89 8.69 8.9 0 0 1029.2 0.2 19.9 27.6 42.6 111.6 105.2 361.6
09/05 04:10 10.6 89 8.69 8.9 7 9 1029.2 0.2 19.9 27.6 42.6 111.6 105.2 361.6
09/05 04:00 10.6 89 8.69 8.9 6 9 1029.1 0.2 19.9 27.6 42.6 111.6 105.2 361.6
09/05 03:50 10.7 89 8.74 9 6 7 1029.2 0.2 20.0 27.7 42.7 112.0 105.7 363.6
09/05 03:40 10.7 89 8.74 9 7 9 1029.2 0.2 20.0 27.7 42.7 112.0 105.7 363.6
09/05 03:30 10.8 89 8.8 9.1 9 13 1029 0.2 20.1 27.7 42.9 112.5 106.4 366.0
09/05 03:20 10.7 88 8.65 8.8 9 13 1029.1 0.2 19.8 27.5 42.3 111.0 104.5 359.2
09/05 03:10 10.8 89 8.8 9.1 9 13 1029.2 0.2 20.1 27.7 42.9 112.5 106.4 366.1
09/05 03:00 10.7 88 8.65 8.8 7 15 1029.2 0.2 19.8 27.5 42.3 111.0 104.5 359.2
09/05 02:50 10.8 89 8.8 9.1 9 11 1029.3 0.2 20.1 27.8 42.9 112.5 106.5 366.1
09/05 02:40 10.8 88 8.7 8.9 13 15 1029.4 0.2 19.9 27.6 42.5 111.4 105.1 361.2
09/05 02:30 10.9 88 8.75 9 7 11 1029.4 0.2 20.0 27.6 42.7 111.8 105.6 363.2
09/05 02:20 10.9 88 8.75 9 11 13 1029.5 0.2 20.0 27.6 42.7 111.9 105.6 363.2
09/05 02:10 10.9 89 8.85 9.2 9 9 1029.6 0.2 20.3 27.8 43.1 113.0 107.0 368.2
09/05 02:00 10.9 89 8.85 9.2 9 15 1029.5 0.2 20.3 27.8 43.1 113.0 107.0 368.1
09/05 01:50 10.9 89 8.85 9.2 11 15 1029.6 0.2 20.3 27.8 43.1 113.0 107.0 368.2
09/05 01:40 10.8 90 8.9 9.2 11 15 1029.6 0.2 20.4 27.9 43.4 113.7 107.9 371.1
09/05 01:30 10.8 90 8.9 9.2 11 20 1029.5 0.2 20.4 27.9 43.4 113.7 107.9 371.1
09/05 01:20 10.8 91 9 9.4 13 13 1029.5 0.2 20.6 28.1 43.8 114.8 109.3 376.0
09/05 01:10 10.5 93 9.02 9.4 7 11 1029.5 0.2 20.6 28.2 44.1 115.5 110.0 378.4
09/05 01:00 10.2 93 8.85 9.1 7 9 1029.5 0.2 20.3 28.0 43.5 114.0 108.0 371.5
09/05 00:50 10 92 8.65 8.8 7 7 1029.6 0.2 19.9 27.8 42.7 112.0 105.5 362.5
09/05 00:40 10 91 8.55 8.6 0 0 1029.7 0.2 19.7 27.6 42.3 110.9 104.1 357.7
09/05 00:30 10.1 89 8.42 8.4 6 13 1029.6 0.2 19.4 27.3 41.7 109.3 102.1 350.8
09/05 00:20 10.4 89 8.58 8.7 9 11 1029.7 0.2 19.7 27.5 42.2 110.7 104.0 357.3
09/05 00:10 10.8 88 8.7 8.9 7 9 1029.7 0.2 19.9 27.6 42.5 111.4 105.1 361.3
09/05 00:00 11.1 88 8.87 9.2 11 17 1029.6 0.2 20.3 27.8 43.1 112.9 107.0 368.2
08/05 23:50 11.2 89 9.02 9.5 9 11 1029.8 0.2 20.6 28.0 43.7 114.5 109.0 375.1
08/05 23:40 11.3 90 9.18 9.7 9 13 1029.9 0.2 20.9 28.3 44.3 116.2 111.1 382.6
08/05 23:30 11.3 90 9.18 9.7 6 11 1029.8 0.2 20.9 28.3 44.3 116.2 111.1 382.5
08/05 23:20 11.4 89 9.14 9.7 7 9 1029.9 0.2 20.8 28.2 44.1 115.6 110.4 380.1
08/05 23:10 11.4 90 9.24 9.8 7 9 1030 0.2 21.1 28.3 44.5 116.8 111.9 385.1
08/05 23:00 11.4 90 9.24 9.8 11 17 1030 0.2 21.1 28.3 44.5 116.8 111.9 385.1
08/05 22:50 11.6 90 9.36 10 7 9 1030.1 0.2 21.3 28.5 44.9 117.8 113.3 390.0
08/05 22:40 11.6 90 9.36 10 7 9 1030.2 0.2 21.3 28.5 44.9 117.9 113.3 390.1
08/05 22:30 11.8 91 9.58 10.4 7 17 1030 0.2 21.8 28.8 45.8 120.1 116.1 399.9
08/05 22:20 11.7 91 9.52 10.3 13 17 1030.2 0.2 21.6 28.7 45.6 119.5 115.4 397.5
08/05 22:10 11.7 92 9.62 10.4 7 11 1030.2 0.2 21.9 28.9 46.0 120.7 116.8 402.5
08/05 22:00 11.7 93 9.73 10.6 11 20 1030.2 0.2 22.1 29.1 46.5 122.0 118.4 408.0
08/05 21:50 11.6 93 9.67 10.5 6 7 1030.3 0.2 22.0 29.0 46.3 121.5 117.7 405.5
08/05 21:40 11.5 93 9.61 10.4 7 11 1030.4 0.2 21.8 29.0 46.1 120.9 117.0 403.1
08/05 21:30 11.6 93 9.67 10.5 9 19 1030.2 0.2 22.0 29.0 46.3 121.4 117.7 405.5
08/05 21:20 11.6 93 9.67 10.5 9 9 1030.3 0.2 22.0 29.0 46.3 121.5 117.7 405.5
08/05 21:10 11.5 93 9.61 10.4 9 11 1030.3 0.2 21.8 29.0 46.1 120.9 117.0 403.0
08/05 21:00 11.5 94 9.71 10.6 15 20 1030.1 0.2 22.1 29.1 46.5 122.1 118.4 408.0
08/05 20:50 11.5 95 9.81 10.7 11 15 1030.2 0.2 22.3 29.3 46.9 123.2 119.9 413.0
08/05 20:40 11.6 95 9.88 10.8 11 15 1030.2 0.2 22.4 29.4 47.2 123.9 120.7 416.0
08/05 20:30 11.6 94 9.77 10.7 11 20 1030.1 0 22.2 29.2 46.7 122.6 119.1 410.5
08/05 20:20 11.5 94 9.71 10.6 11 13 1030.2 0 22.1 29.1 46.5 122.1 118.4 408.0
08/05 20:10 11.2 93 9.43 10.1 9 11 1030.1 0 21.5 28.7 45.5 119.3 114.9 395.5
08/05 20:00 11.4 93 9.55 10.3 11 20 1030 0 21.7 28.9 45.9 120.3 116.3 400.5
08/05 19:50 11.6 94 9.77 10.7 13 17 1030.1 0 22.2 29.2 46.7 122.6 119.1 410.5
08/05 19:40 11.8 93 9.79 10.7 9 11 1030.1 0 22.2 29.2 46.7 122.5 119.1 410.4
08/05 19:30 11.9 92 9.74 10.6 13 20 1029.9 0 22.1 29.0 46.4 121.7 118.2 407.3
08/05 19:20 11.9 91 9.64 10.5 15 20 1029.9 0 21.9 28.9 45.9 120.6 116.8 402.3
08/05 19:10 11.9 91 9.64 10.5 9 11 1029.9 0 21.9 28.9 45.9 120.6 116.8 402.3
08/05 19:00 11.8 90 9.47 10.2 9 15 1029.8 0 21.5 28.6 45.3 118.8 114.5 394.4
08/05 18:50 11.7 90 9.41 10.1 7 11 1029.8 0 21.4 28.5 45.1 118.2 113.8 391.9
08/05 18:40 11.8 90 9.47 10.2 6 9 1029.8 0 21.5 28.6 45.3 118.8 114.5 394.4
08/05 18:30 11.8 90 9.47 10.2 7 13 1029.7 0 21.5 28.6 45.3 118.8 114.5 394.3
08/05 18:20 11.7 90 9.41 10.1 9 11 1029.7 0 21.4 28.5 45.1 118.2 113.8 391.9

Last Refresh: 09-May-2026 10:59:35

Bureau of Meteorology